sensor_id;sensor_type;location;lat;lon;timestamp;pressure;altitude;pressure_sealevel;temperature;humidity
6389;BME280;3227;42.654;23.360;2023-08-30T00:02:05;93565.50;;;22.82;88.48
6389;BME280;3227;42.654;23.360;2023-08-30T00:04:34;93557.78;;;22.80;89.00
6389;BME280;3227;42.654;23.360;2023-08-30T00:07:02;93551.50;;;22.83;89.43
6389;BME280;3227;42.654;23.360;2023-08-30T00:09:28;93558.22;;;22.87;89.38
6389;BME280;3227;42.654;23.360;2023-08-30T00:11:55;93564.81;;;22.92;89.15
6389;BME280;3227;42.654;23.360;2023-08-30T00:14:23;93558.66;;;22.93;90.72
6389;BME280;3227;42.654;23.360;2023-08-30T00:16:51;93553.44;;;22.93;90.27
6389;BME280;3227;42.654;23.360;2023-08-30T00:19:17;93547.91;;;22.98;89.25
6389;BME280;3227;42.654;23.360;2023-08-30T00:21:44;93552.03;;;23.02;86.76
6389;BME280;3227;42.654;23.360;2023-08-30T00:24:11;93555.56;;;23.01;85.85
6389;BME280;3227;42.654;23.360;2023-08-30T00:26:38;93558.19;;;23.01;82.54
6389;BME280;3227;42.654;23.360;2023-08-30T00:29:04;93561.94;;;22.97;81.91
6389;BME280;3227;42.654;23.360;2023-08-30T00:31:32;93552.03;;;23.02;81.44
6389;BME280;3227;42.654;23.360;2023-08-30T00:33:59;93546.22;;;23.11;81.74
6389;BME280;3227;42.654;23.360;2023-08-30T00:36:26;93544.88;;;23.18;79.80
6389;BME280;3227;42.654;23.360;2023-08-30T00:38:53;93542.56;;;23.13;77.05
6389;BME280;3227;42.654;23.360;2023-08-30T00:41:20;93549.00;;;23.08;76.13
6389;BME280;3227;42.654;23.360;2023-08-30T00:43:47;93552.22;;;22.99;77.63
6389;BME280;3227;42.654;23.360;2023-08-30T00:46:13;93568.09;;;22.96;79.00
6389;BME280;3227;42.654;23.360;2023-08-30T00:48:43;93569.03;;;22.95;80.80
6389;BME280;3227;42.654;23.360;2023-08-30T00:51:11;93569.88;;;22.95;81.32
6389;BME280;3227;42.654;23.360;2023-08-30T00:53:38;93562.03;;;22.95;80.38
6389;BME280;3227;42.654;23.360;2023-08-30T00:56:05;93545.59;;;22.93;80.00
6389;BME280;3227;42.654;23.360;2023-08-30T00:58:32;93539.44;;;22.94;78.34
6389;BME280;3227;42.654;23.360;2023-08-30T01:00:59;93548.22;;;22.93;77.31
6389;BME280;3227;42.654;23.360;2023-08-30T01:03:26;93556.72;;;22.97;78.12
6389;BME280;3227;42.654;23.360;2023-08-30T01:05:54;93565.13;;;22.88;77.81
6389;BME280;3227;42.654;23.360;2023-08-30T01:08:21;93579.66;;;22.92;79.37
6389;BME280;3227;42.654;23.360;2023-08-30T01:10:55;93575.19;;;22.94;78.64
6389;BME280;3227;42.654;23.360;2023-08-30T01:13:26;93574.88;;;22.98;77.95
6389;BME280;3227;42.654;23.360;2023-08-30T01:15:56;93583.88;;;22.94;76.59
6389;BME280;3227;42.654;23.360;2023-08-30T01:18:26;93593.75;;;22.75;75.88
6389;BME280;3227;42.654;23.360;2023-08-30T01:20:55;93593.47;;;22.51;76.55
6389;BME280;3227;42.654;23.360;2023-08-30T01:23:29;93607.06;;;22.42;78.10
6389;BME280;3227;42.654;23.360;2023-08-30T01:26:07;93601.94;;;22.40;80.96
6389;BME280;3227;42.654;23.360;2023-08-30T01:28:37;93593.09;;;22.29;80.35
6389;BME280;3227;42.654;23.360;2023-08-30T01:31:06;93592.34;;;22.27;80.23
6389;BME280;3227;42.654;23.360;2023-08-30T01:33:35;93588.72;;;22.29;81.89
6389;BME280;3227;42.654;23.360;2023-08-30T01:36:03;93560.47;;;22.22;81.84
6389;BME280;3227;42.654;23.360;2023-08-30T01:38:32;93573.34;;;22.39;83.57
6389;BME280;3227;42.654;23.360;2023-08-30T01:40:59;93573.53;;;22.36;82.89
6389;BME280;3227;42.654;23.360;2023-08-30T01:43:27;93589.56;;;22.44;80.92
6389;BME280;3227;42.654;23.360;2023-08-30T01:46:11;93593.38;;;22.53;83.86
6389;BME280;3227;42.654;23.360;2023-08-30T01:48:39;93588.63;;;22.45;83.17
6389;BME280;3227;42.654;23.360;2023-08-30T01:51:06;93579.41;;;22.39;83.00
6389;BME280;3227;42.654;23.360;2023-08-30T01:53:35;93570.25;;;22.32;81.37
6389;BME280;3227;42.654;23.360;2023-08-30T01:56:02;93588.63;;;22.31;80.66
6389;BME280;3227;42.654;23.360;2023-08-30T01:58:29;93522.94;;;21.80;81.40
6389;BME280;3227;42.654;23.360;2023-08-30T02:00:56;93593.72;;;22.18;81.74
6389;BME280;3227;42.654;23.360;2023-08-30T02:03:24;93598.94;;;22.18;81.27
6389;BME280;3227;42.654;23.360;2023-08-30T02:05:59;93504.50;;;21.69;81.08
6389;BME280;3227;42.654;23.360;2023-08-30T02:08:36;93579.06;;;22.01;80.72
6389;BME280;3227;42.654;23.360;2023-08-30T02:11:07;93514.66;;;21.44;81.09
6389;BME280;3227;42.654;23.360;2023-08-30T02:13:38;93582.09;;;21.80;81.13
6389;BME280;3227;42.654;23.360;2023-08-30T02:16:07;93583.84;;;21.79;80.84
6389;BME280;3227;42.654;23.360;2023-08-30T02:18:36;93570.13;;;21.76;81.49
6389;BME280;3227;42.654;23.360;2023-08-30T02:21:03;93577.44;;;21.85;82.96
6389;BME280;3227;42.654;23.360;2023-08-30T02:23:30;93571.69;;;21.94;83.38
6389;BME280;3227;42.654;23.360;2023-08-30T02:25:57;93576.31;;;22.05;82.54
6389;BME280;3227;42.654;23.360;2023-08-30T02:28:23;93562.88;;;22.11;84.70
6389;BME280;3227;42.654;23.360;2023-08-30T02:30:53;93567.00;;;22.15;83.41
6389;BME280;3227;42.654;23.360;2023-08-30T02:33:20;93564.09;;;22.19;82.45
6389;BME280;3227;42.654;23.360;2023-08-30T02:35:48;93564.19;;;22.18;82.32
6389;BME280;3227;42.654;23.360;2023-08-30T02:38:14;93570.44;;;22.15;85.05
6389;BME280;3227;42.654;23.360;2023-08-30T02:40:42;93573.16;;;22.14;85.85
6389;BME280;3227;42.654;23.360;2023-08-30T02:43:08;93573.31;;;22.11;84.01
6389;BME280;3227;42.654;23.360;2023-08-30T02:45:35;93572.75;;;22.06;86.04
6389;BME280;3227;42.654;23.360;2023-08-30T02:48:03;93568.16;;;21.95;86.90
6389;BME280;3227;42.654;23.360;2023-08-30T02:50:30;93559.47;;;21.94;86.75
6389;BME280;3227;42.654;23.360;2023-08-30T02:52:58;93553.19;;;21.98;86.60
6389;BME280;3227;42.654;23.360;2023-08-30T02:55:25;93547.56;;;21.90;85.02
6389;BME280;3227;42.654;23.360;2023-08-30T02:57:51;93559.47;;;21.94;85.47
6389;BME280;3227;42.654;23.360;2023-08-30T03:00:18;93558.56;;;21.95;85.75
6389;BME280;3227;42.654;23.360;2023-08-30T03:02:45;93559.34;;;21.97;86.90
6389;BME280;3227;42.654;23.360;2023-08-30T03:05:12;93561.16;;;21.95;86.34
6389;BME280;3227;42.654;23.360;2023-08-30T03:07:39;93566.75;;;21.89;86.22
6389;BME280;3227;42.654;23.360;2023-08-30T03:10:08;93561.78;;;21.85;87.15
6389;BME280;3227;42.654;23.360;2023-08-30T03:12:35;93546.38;;;21.66;87.20
6389;BME280;3227;42.654;23.360;2023-08-30T03:15:02;93564.75;;;21.79;85.41
6389;BME280;3227;42.654;23.360;2023-08-30T03:17:29;93559.81;;;21.74;85.90
6389;BME280;3227;42.654;23.360;2023-08-30T03:19:56;93562.97;;;21.65;86.00
6389;BME280;3227;42.654;23.360;2023-08-30T03:22:23;93563.03;;;21.63;86.51
6389;BME280;3227;42.654;23.360;2023-08-30T03:24:50;93573.66;;;21.60;86.43
6389;BME280;3227;42.654;23.360;2023-08-30T03:27:18;93567.03;;;21.55;86.55
6389;BME280;3227;42.654;23.360;2023-08-30T03:29:45;93568.72;;;21.56;87.02
6389;BME280;3227;42.654;23.360;2023-08-30T03:32:19;93565.44;;;21.52;86.31
6389;BME280;3227;42.654;23.360;2023-08-30T03:34:46;93555.34;;;21.46;87.67
6389;BME280;3227;42.654;23.360;2023-08-30T03:37:14;93549.59;;;21.41;87.26
6389;BME280;3227;42.654;23.360;2023-08-30T03:39:41;93544.38;;;21.41;88.34
6389;BME280;3227;42.654;23.360;2023-08-30T03:42:08;93454.19;;;20.93;87.55
6389;BME280;3227;42.654;23.360;2023-08-30T03:44:37;93443.88;;;20.92;86.62
6389;BME280;3227;42.654;23.360;2023-08-30T03:47:04;93543.47;;;21.56;86.93
6389;BME280;3227;42.654;23.360;2023-08-30T03:49:31;93507.13;;;21.39;87.65
6389;BME280;3227;42.654;23.360;2023-08-30T03:51:58;93543.66;;;21.53;87.94
6389;BME280;3227;42.654;23.360;2023-08-30T03:54:24;93539.88;;;21.43;88.36
6389;BME280;3227;42.654;23.360;2023-08-30T03:56:51;93546.13;;;21.41;87.74
6389;BME280;3227;42.654;23.360;2023-08-30T03:59:18;93556.56;;;21.41;88.08
6389;BME280;3227;42.654;23.360;2023-08-30T04:01:46;93560.56;;;21.46;86.71
6389;BME280;3227;42.654;23.360;2023-08-30T04:04:13;93571.66;;;21.50;85.84
6389;BME280;3227;42.654;23.360;2023-08-30T04:06:40;93587.50;;;21.61;86.13
6389;BME280;3227;42.654;23.360;2023-08-30T04:09:06;93579.94;;;21.72;85.93
6389;BME280;3227;42.654;23.360;2023-08-30T04:11:33;93513.00;;;21.43;85.79
6389;BME280;3227;42.654;23.360;2023-08-30T04:14:00;93569.94;;;22.09;84.59
6389;BME280;3227;42.654;23.360;2023-08-30T04:16:28;93567.19;;;22.26;82.03
6389;BME280;3227;42.654;23.360;2023-08-30T04:18:56;93576.69;;;22.41;80.01
6389;BME280;3227;42.654;23.360;2023-08-30T04:21:23;93587.78;;;22.59;79.27
6389;BME280;3227;42.654;23.360;2023-08-30T04:23:50;93592.72;;;22.92;78.38
6389;BME280;3227;42.654;23.360;2023-08-30T04:26:16;93596.56;;;23.27;76.33
6389;BME280;3227;42.654;23.360;2023-08-30T04:28:43;93599.84;;;23.58;75.75
6389;BME280;3227;42.654;23.360;2023-08-30T04:31:10;93610.09;;;23.87;74.19
6389;BME280;3227;42.654;23.360;2023-08-30T04:33:37;93616.34;;;24.24;72.79
6389;BME280;3227;42.654;23.360;2023-08-30T04:36:05;93330.06;;;22.73;70.43
6389;BME280;3227;42.654;23.360;2023-08-30T04:38:33;93625.03;;;24.88;69.56
6389;BME280;3227;42.654;23.360;2023-08-30T04:40:59;93630.06;;;25.17;68.76
6389;BME280;3227;42.654;23.360;2023-08-30T04:43:26;93641.53;;;25.39;67.57
6389;BME280;3227;42.654;23.360;2023-08-30T04:45:53;93648.28;;;25.67;66.32
6389;BME280;3227;42.654;23.360;2023-08-30T04:48:20;93656.44;;;25.75;66.25
6389;BME280;3227;42.654;23.360;2023-08-30T04:50:47;93651.00;;;25.53;66.47
6389;BME280;3227;42.654;23.360;2023-08-30T04:53:15;93640.53;;;25.04;67.34
6389;BME280;3227;42.654;23.360;2023-08-30T04:55:42;93638.06;;;24.52;70.14
6389;BME280;3227;42.654;23.360;2023-08-30T04:58:09;93637.78;;;24.04;73.04
6389;BME280;3227;42.654;23.360;2023-08-30T05:00:35;93642.03;;;23.66;74.76
6389;BME280;3227;42.654;23.360;2023-08-30T05:03:02;93638.28;;;23.29;76.55
6389;BME280;3227;42.654;23.360;2023-08-30T05:05:29;93637.69;;;22.97;76.59
6389;BME280;3227;42.654;23.360;2023-08-30T05:07:56;93632.38;;;22.56;79.54
6389;BME280;3227;42.654;23.360;2023-08-30T05:10:24;93638.00;;;22.20;82.26
6389;BME280;3227;42.654;23.360;2023-08-30T05:12:51;93629.72;;;21.68;83.96
6389;BME280;3227;42.654;23.360;2023-08-30T05:15:18;93636.66;;;21.83;83.59
6389;BME280;3227;42.654;23.360;2023-08-30T05:17:45;93644.22;;;22.03;83.18
6389;BME280;3227;42.654;23.360;2023-08-30T05:20:11;93633.94;;;22.30;81.82
6389;BME280;3227;42.654;23.360;2023-08-30T05:22:38;93629.00;;;22.39;81.10
6389;BME280;3227;42.654;23.360;2023-08-30T05:25:05;93628.91;;;22.55;79.75
6389;BME280;3227;42.654;23.360;2023-08-30T05:27:34;93633.66;;;22.49;78.27
6389;BME280;3227;42.654;23.360;2023-08-30T05:30:01;93640.97;;;22.14;80.96
6389;BME280;3227;42.654;23.360;2023-08-30T05:32:28;93654.41;;;22.22;80.67
6389;BME280;3227;42.654;23.360;2023-08-30T05:34:55;93650.59;;;22.42;80.07
6389;BME280;3227;42.654;23.360;2023-08-30T05:37:22;93657.66;;;22.84;79.15
6389;BME280;3227;42.654;23.360;2023-08-30T05:39:48;93653.28;;;23.39;75.59
6389;BME280;3227;42.654;23.360;2023-08-30T05:42:15;93644.81;;;23.89;73.26
6389;BME280;3227;42.654;23.360;2023-08-30T05:44:43;93650.22;;;24.53;70.78
6389;BME280;3227;42.654;23.360;2023-08-30T05:47:10;93657.56;;;24.98;67.75
6389;BME280;3227;42.654;23.360;2023-08-30T05:49:40;93649.34;;;25.16;66.01
6389;BME280;3227;42.654;23.360;2023-08-30T05:52:07;93658.50;;;25.59;65.56
6389;BME280;3227;42.654;23.360;2023-08-30T05:54:33;93652.06;;;25.87;61.93
6389;BME280;3227;42.654;23.360;2023-08-30T05:57:00;93654.41;;;26.03;60.58
6389;BME280;3227;42.654;23.360;2023-08-30T05:59:27;93657.34;;;26.22;60.42
6389;BME280;3227;42.654;23.360;2023-08-30T06:01:55;93648.53;;;26.23;60.15
6389;BME280;3227;42.654;23.360;2023-08-30T06:04:22;93641.41;;;26.36;58.80
6389;BME280;3227;42.654;23.360;2023-08-30T06:06:49;93655.56;;;26.69;58.43
6389;BME280;3227;42.654;23.360;2023-08-30T06:09:16;93659.97;;;26.92;55.54
6389;BME280;3227;42.654;23.360;2023-08-30T06:11:43;93655.53;;;26.93;54.76
6389;BME280;3227;42.654;23.360;2023-08-30T06:14:10;93655.06;;;26.52;52.14
6389;BME280;3227;42.654;23.360;2023-08-30T06:16:37;93651.13;;;26.47;53.47
6389;BME280;3227;42.654;23.360;2023-08-30T06:19:05;93651.97;;;26.47;51.11
6389;BME280;3227;42.654;23.360;2023-08-30T06:21:31;93660.06;;;26.33;50.14
6389;BME280;3227;42.654;23.360;2023-08-30T06:23:58;93652.91;;;26.46;51.54
6389;BME280;3227;42.654;23.360;2023-08-30T06:26:25;93663.19;;;26.61;49.26
6389;BME280;3227;42.654;23.360;2023-08-30T06:28:52;93665.94;;;26.48;50.05
6389;BME280;3227;42.654;23.360;2023-08-30T06:31:18;93670.34;;;26.47;49.51
6389;BME280;3227;42.654;23.360;2023-08-30T06:33:45;93673.00;;;26.59;49.86
6389;BME280;3227;42.654;23.360;2023-08-30T06:36:15;93674.00;;;26.80;51.04
6389;BME280;3227;42.654;23.360;2023-08-30T06:38:42;93667.13;;;27.01;49.64
6389;BME280;3227;42.654;23.360;2023-08-30T06:41:09;93662.34;;;27.06;49.78
6389;BME280;3227;42.654;23.360;2023-08-30T06:43:37;93663.66;;;27.01;49.00
6389;BME280;3227;42.654;23.360;2023-08-30T06:46:04;93663.00;;;26.75;49.73
6389;BME280;3227;42.654;23.360;2023-08-30T06:48:30;93662.66;;;26.68;50.95
6389;BME280;3227;42.654;23.360;2023-08-30T06:50:57;93669.00;;;26.88;50.33
6389;BME280;3227;42.654;23.360;2023-08-30T06:53:26;93643.06;;;26.83;49.71
6389;BME280;3227;42.654;23.360;2023-08-30T06:56:01;93658.50;;;27.10;51.10
6389;BME280;3227;42.654;23.360;2023-08-30T06:58:29;93667.84;;;27.25;50.79
6389;BME280;3227;42.654;23.360;2023-08-30T07:00:56;93658.75;;;27.41;50.81
6389;BME280;3227;42.654;23.360;2023-08-30T07:03:23;93637.22;;;27.58;50.19
6389;BME280;3227;42.654;23.360;2023-08-30T07:05:50;93657.16;;;28.15;46.93
6389;BME280;3227;42.654;23.360;2023-08-30T07:08:17;93654.59;;;28.56;44.47
6389;BME280;3227;42.654;23.360;2023-08-30T07:10:46;93652.34;;;28.72;43.97
6389;BME280;3227;42.654;23.360;2023-08-30T07:13:12;93657.81;;;28.81;43.18
6389;BME280;3227;42.654;23.360;2023-08-30T07:15:40;93660.72;;;28.77;43.32
6389;BME280;3227;42.654;23.360;2023-08-30T07:18:07;93656.53;;;28.96;42.75
6389;BME280;3227;42.654;23.360;2023-08-30T07:20:34;93653.63;;;28.99;41.32
6389;BME280;3227;42.654;23.360;2023-08-30T07:23:02;93663.72;;;28.94;42.97
6389;BME280;3227;42.654;23.360;2023-08-30T07:25:29;93664.44;;;28.96;41.99
6389;BME280;3227;42.654;23.360;2023-08-30T07:27:59;93648.41;;;28.88;41.44
6389;BME280;3227;42.654;23.360;2023-08-30T07:30:26;93660.38;;;28.92;41.77
6389;BME280;3227;42.654;23.360;2023-08-30T07:32:54;93618.16;;;28.82;40.77
6389;BME280;3227;42.654;23.360;2023-08-30T07:35:20;93623.28;;;29.14;40.07
6389;BME280;3227;42.654;23.360;2023-08-30T07:37:47;93654.78;;;29.36;39.62
6389;BME280;3227;42.654;23.360;2023-08-30T07:40:14;93663.84;;;29.43;39.97
6389;BME280;3227;42.654;23.360;2023-08-30T07:42:41;93660.25;;;29.54;39.57
6389;BME280;3227;42.654;23.360;2023-08-30T07:45:10;93653.59;;;29.60;39.88
6389;BME280;3227;42.654;23.360;2023-08-30T07:47:36;93627.19;;;29.60;39.32
6389;BME280;3227;42.654;23.360;2023-08-30T07:50:05;93650.31;;;29.77;39.57
6389;BME280;3227;42.654;23.360;2023-08-30T07:52:32;93650.44;;;29.75;39.44
6389;BME280;3227;42.654;23.360;2023-08-30T07:54:59;93658.78;;;29.71;40.51
6389;BME280;3227;42.654;23.360;2023-08-30T07:57:27;93652.59;;;29.51;41.99
6389;BME280;3227;42.654;23.360;2023-08-30T07:59:54;93648.16;;;28.91;42.47
6389;BME280;3227;42.654;23.360;2023-08-30T08:02:22;93652.16;;;28.64;44.02
6389;BME280;3227;42.654;23.360;2023-08-30T08:04:49;93665.81;;;28.37;44.04
6389;BME280;3227;42.654;23.360;2023-08-30T08:07:17;93663.63;;;28.11;44.87
6389;BME280;3227;42.654;23.360;2023-08-30T08:09:44;93630.28;;;27.46;46.54
6389;BME280;3227;42.654;23.360;2023-08-30T08:12:11;93645.03;;;27.26;46.67
6389;BME280;3227;42.654;23.360;2023-08-30T08:14:37;93597.56;;;27.05;47.07
6389;BME280;3227;42.654;23.360;2023-08-30T08:17:04;93559.81;;;26.95;44.86
6389;BME280;3227;42.654;23.360;2023-08-30T08:19:32;93654.16;;;27.76;45.25
6389;BME280;3227;42.654;23.360;2023-08-30T08:22:04;93652.31;;;27.99;45.46
6389;BME280;3227;42.654;23.360;2023-08-30T08:24:31;93651.47;;;27.98;43.44
6389;BME280;3227;42.654;23.360;2023-08-30T08:26:57;93659.56;;;27.75;45.29
6389;BME280;3227;42.654;23.360;2023-08-30T08:29:26;93599.69;;;26.89;46.19
6389;BME280;3227;42.654;23.360;2023-08-30T08:31:53;93638.47;;;26.52;46.83
6389;BME280;3227;42.654;23.360;2023-08-30T08:34:20;93645.53;;;26.63;48.00
6389;BME280;3227;42.654;23.360;2023-08-30T08:36:48;93660.25;;;26.87;48.63
6389;BME280;3227;42.654;23.360;2023-08-30T08:39:15;93662.59;;;26.92;47.33
6389;BME280;3227;42.654;23.360;2023-08-30T08:41:44;93640.56;;;26.82;46.93
6389;BME280;3227;42.654;23.360;2023-08-30T08:44:12;93669.94;;;26.87;46.94
6389;BME280;3227;42.654;23.360;2023-08-30T08:46:40;93669.28;;;27.07;46.99
6389;BME280;3227;42.654;23.360;2023-08-30T08:49:09;93667.72;;;27.27;45.58
6389;BME280;3227;42.654;23.360;2023-08-30T08:51:37;93662.94;;;27.54;44.09
6389;BME280;3227;42.654;23.360;2023-08-30T08:54:06;93658.22;;;27.80;42.75
6389;BME280;3227;42.654;23.360;2023-08-30T08:56:34;93618.97;;;27.77;42.64
6389;BME280;3227;42.654;23.360;2023-08-30T08:59:02;93655.91;;;28.30;41.46
6389;BME280;3227;42.654;23.360;2023-08-30T09:01:29;93643.66;;;28.40;41.14
6389;BME280;3227;42.654;23.360;2023-08-30T09:03:59;93658.91;;;28.57;40.27
6389;BME280;3227;42.654;23.360;2023-08-30T09:06:26;93660.06;;;28.64;40.49
6389;BME280;3227;42.654;23.360;2023-08-30T09:08:55;93661.00;;;28.63;41.50
6389;BME280;3227;42.654;23.360;2023-08-30T09:11:23;93649.88;;;28.60;40.76
6389;BME280;3227;42.654;23.360;2023-08-30T09:13:50;93651.47;;;28.51;40.76
6389;BME280;3227;42.654;23.360;2023-08-30T09:16:16;93627.97;;;28.38;41.46
6389;BME280;3227;42.654;23.360;2023-08-30T09:18:43;93649.44;;;28.55;40.54
6389;BME280;3227;42.654;23.360;2023-08-30T09:21:10;93644.41;;;28.31;41.36
6389;BME280;3227;42.654;23.360;2023-08-30T09:23:38;93642.09;;;28.37;40.84
6389;BME280;3227;42.654;23.360;2023-08-30T09:26:05;93649.28;;;28.35;41.14
6389;BME280;3227;42.654;23.360;2023-08-30T09:28:41;93651.28;;;28.22;41.65
6389;BME280;3227;42.654;23.360;2023-08-30T09:31:16;93573.13;;;27.59;41.83
6389;BME280;3227;42.654;23.360;2023-08-30T09:33:45;93662.66;;;28.12;42.01
6389;BME280;3227;42.654;23.360;2023-08-30T09:36:13;93658.31;;;28.33;42.13
6389;BME280;3227;42.654;23.360;2023-08-30T09:38:40;93634.53;;;28.23;42.02
6389;BME280;3227;42.654;23.360;2023-08-30T09:41:06;93654.13;;;28.51;41.99
6389;BME280;3227;42.654;23.360;2023-08-30T09:43:35;93647.13;;;28.61;41.70
6389;BME280;3227;42.654;23.360;2023-08-30T09:46:03;93577.59;;;28.32;40.90
6389;BME280;3227;42.654;23.360;2023-08-30T09:48:31;93641.72;;;28.84;40.78
6389;BME280;3227;42.654;23.360;2023-08-30T09:51:02;93637.63;;;28.91;40.54
6389;BME280;3227;42.654;23.360;2023-08-30T09:53:29;93631.34;;;28.92;40.50
6389;BME280;3227;42.654;23.360;2023-08-30T09:55:59;93635.00;;;28.91;40.47
6389;BME280;3227;42.654;23.360;2023-08-30T09:58:27;93636.63;;;28.92;40.11
6389;BME280;3227;42.654;23.360;2023-08-30T10:00:56;93633.16;;;28.91;39.89
6389;BME280;3227;42.654;23.360;2023-08-30T10:03:28;93625.22;;;28.82;40.25
6389;BME280;3227;42.654;23.360;2023-08-30T10:05:56;93624.34;;;28.60;40.34
6389;BME280;3227;42.654;23.360;2023-08-30T10:08:25;93624.13;;;28.63;40.33
6389;BME280;3227;42.654;23.360;2023-08-30T10:10:58;93613.81;;;28.60;40.51
6389;BME280;3227;42.654;23.360;2023-08-30T10:13:25;93626.19;;;28.81;40.71
6389;BME280;3227;42.654;23.360;2023-08-30T10:16:00;93613.16;;;28.68;40.43
6389;BME280;3227;42.654;23.360;2023-08-30T10:18:32;93615.97;;;28.14;41.25
6389;BME280;3227;42.654;23.360;2023-08-30T10:21:02;93605.34;;;27.72;42.01
6389;BME280;3227;42.654;23.360;2023-08-30T10:23:34;93609.78;;;27.72;41.70
6389;BME280;3227;42.654;23.360;2023-08-30T10:26:02;93620.63;;;27.24;42.92
6389;BME280;3227;42.654;23.360;2023-08-30T10:28:31;93615.44;;;26.78;43.98
6389;BME280;3227;42.654;23.360;2023-08-30T10:30:59;93612.81;;;26.78;44.34
6389;BME280;3227;42.654;23.360;2023-08-30T10:33:26;93604.81;;;26.79;44.53
6389;BME280;3227;42.654;23.360;2023-08-30T10:35:53;93609.88;;;27.05;44.37
6389;BME280;3227;42.654;23.360;2023-08-30T10:38:27;93615.47;;;27.34;43.83
6389;BME280;3227;42.654;23.360;2023-08-30T10:40:55;93613.81;;;27.33;43.85
6389;BME280;3227;42.654;23.360;2023-08-30T10:43:29;93607.59;;;27.22;44.10
6389;BME280;3227;42.654;23.360;2023-08-30T10:46:02;93609.28;;;27.01;44.65
6389;BME280;3227;42.654;23.360;2023-08-30T10:48:35;93599.06;;;26.85;44.94
6389;BME280;3227;42.654;23.360;2023-08-30T10:51:02;93596.88;;;26.92;44.92
6389;BME280;3227;42.654;23.360;2023-08-30T10:53:30;93597.78;;;27.13;44.41
6389;BME280;3227;42.654;23.360;2023-08-30T10:56:11;93597.91;;;27.34;44.49
6389;BME280;3227;42.654;23.360;2023-08-30T10:58:40;93604.25;;;27.20;44.44
6389;BME280;3227;42.654;23.360;2023-08-30T11:01:10;93601.72;;;27.19;44.36
6389;BME280;3227;42.654;23.360;2023-08-30T11:03:39;93597.31;;;27.19;43.88
6389;BME280;3227;42.654;23.360;2023-08-30T11:06:06;93597.53;;;27.27;43.63
6389;BME280;3227;42.654;23.360;2023-08-30T11:08:33;93593.09;;;27.28;43.86
6389;BME280;3227;42.654;23.360;2023-08-30T11:11:05;93589.50;;;27.40;44.44
6389;BME280;3227;42.654;23.360;2023-08-30T11:13:36;93583.16;;;27.54;43.91
6389;BME280;3227;42.654;23.360;2023-08-30T11:16:03;93597.75;;;27.58;43.04
6389;BME280;3227;42.654;23.360;2023-08-30T11:18:36;93584.38;;;27.39;43.53
6389;BME280;3227;42.654;23.360;2023-08-30T11:21:03;93593.44;;;27.57;43.64
6389;BME280;3227;42.654;23.360;2023-08-30T11:23:30;93595.06;;;27.69;41.99
6389;BME280;3227;42.654;23.360;2023-08-30T11:25:58;93577.16;;;27.52;41.97
6389;BME280;3227;42.654;23.360;2023-08-30T11:28:25;93579.53;;;27.66;42.39
6389;BME280;3227;42.654;23.360;2023-08-30T11:30:53;93566.28;;;27.88;42.61
6389;BME280;3227;42.654;23.360;2023-08-30T11:33:20;93570.72;;;28.09;42.33
6389;BME280;3227;42.654;23.360;2023-08-30T11:35:50;93559.47;;;28.18;40.81
6389;BME280;3227;42.654;23.360;2023-08-30T11:38:18;93563.75;;;28.19;41.51
6389;BME280;3227;42.654;23.360;2023-08-30T11:40:49;93552.16;;;28.10;41.11
6389;BME280;3227;42.654;23.360;2023-08-30T11:43:16;93561.22;;;27.96;41.64
6389;BME280;3227;42.654;23.360;2023-08-30T11:45:43;93548.66;;;28.00;41.21
6389;BME280;3227;42.654;23.360;2023-08-30T11:48:10;93533.28;;;28.05;41.39
6389;BME280;3227;42.654;23.360;2023-08-30T11:50:37;93545.59;;;28.16;41.35
6389;BME280;3227;42.654;23.360;2023-08-30T11:53:06;93541.94;;;27.96;40.82
6389;BME280;3227;42.654;23.360;2023-08-30T11:55:33;93549.66;;;28.09;40.68
6389;BME280;3227;42.654;23.360;2023-08-30T11:58:01;93550.97;;;28.14;40.81
6389;BME280;3227;42.654;23.360;2023-08-30T12:00:29;93539.06;;;27.99;40.73
6389;BME280;3227;42.654;23.360;2023-08-30T12:02:59;93528.44;;;28.21;40.84
6389;BME280;3227;42.654;23.360;2023-08-30T12:05:26;93538.28;;;28.50;40.00
6389;BME280;3227;42.654;23.360;2023-08-30T12:07:53;93529.13;;;28.44;39.23
6389;BME280;3227;42.654;23.360;2023-08-30T12:10:21;93531.22;;;28.50;39.32
6389;BME280;3227;42.654;23.360;2023-08-30T12:12:48;93541.25;;;28.56;38.41
6389;BME280;3227;42.654;23.360;2023-08-30T12:15:15;93536.03;;;28.66;39.19
6389;BME280;3227;42.654;23.360;2023-08-30T12:17:42;93532.47;;;28.76;37.99
6389;BME280;3227;42.654;23.360;2023-08-30T12:20:15;93534.84;;;28.49;38.24
6389;BME280;3227;42.654;23.360;2023-08-30T12:22:43;93484.88;;;27.96;38.58
6389;BME280;3227;42.654;23.360;2023-08-30T12:25:16;93493.78;;;27.84;38.88
6389;BME280;3227;42.654;23.360;2023-08-30T12:27:45;93369.41;;;27.09;38.88
6389;BME280;3227;42.654;23.360;2023-08-30T12:30:13;93522.75;;;28.05;38.57
6389;BME280;3227;42.654;23.360;2023-08-30T12:32:42;93516.41;;;28.08;38.53
6389;BME280;3227;42.654;23.360;2023-08-30T12:35:09;93518.22;;;28.28;38.10
6389;BME280;3227;42.654;23.360;2023-08-30T12:37:35;93505.97;;;28.48;37.16
6389;BME280;3227;42.654;23.360;2023-08-30T12:40:03;93509.84;;;28.74;37.17
6389;BME280;3227;42.654;23.360;2023-08-30T12:42:30;93509.53;;;28.98;35.83
6389;BME280;3227;42.654;23.360;2023-08-30T12:44:58;93499.13;;;29.15;34.79
6389;BME280;3227;42.654;23.360;2023-08-30T12:47:25;93497.81;;;29.31;34.06
6389;BME280;3227;42.654;23.360;2023-08-30T12:49:51;93503.09;;;29.40;33.73
6389;BME280;3227;42.654;23.360;2023-08-30T12:52:18;93500.75;;;29.37;33.66
6389;BME280;3227;42.654;23.360;2023-08-30T12:54:45;93491.31;;;29.44;33.34
6389;BME280;3227;42.654;23.360;2023-08-30T12:57:13;93487.00;;;29.53;32.60
6389;BME280;3227;42.654;23.360;2023-08-30T12:59:40;93488.97;;;29.61;32.65
6389;BME280;3227;42.654;23.360;2023-08-30T13:02:08;93480.34;;;29.59;33.01
6389;BME280;3227;42.654;23.360;2023-08-30T13:04:35;93471.88;;;29.65;32.99
6389;BME280;3227;42.654;23.360;2023-08-30T13:07:03;93478.41;;;29.89;32.24
6389;BME280;3227;42.654;23.360;2023-08-30T13:09:30;93473.66;;;30.12;31.42
6389;BME280;3227;42.654;23.360;2023-08-30T13:11:57;93479.75;;;30.22;31.26
6389;BME280;3227;42.654;23.360;2023-08-30T13:14:24;93476.81;;;30.25;31.02